sensor_id;sensor_type;location;lat;lon;timestamp;P1;durP1;ratioP1;P2;durP2;ratioP2
8982;SDS011;20979;59.850;10.660;2023-03-14T00:02:06;1.20;;;1.17;;
8982;SDS011;20979;59.850;10.660;2023-03-14T00:04:35;0.80;;;0.80;;
8982;SDS011;20979;59.850;10.660;2023-03-14T00:07:03;0.90;;;0.90;;
8982;SDS011;20979;59.850;10.660;2023-03-14T00:09:30;0.87;;;0.87;;
8982;SDS011;20979;59.850;10.660;2023-03-14T00:11:58;1.00;;;0.90;;
8982;SDS011;20979;59.850;10.660;2023-03-14T00:14:25;1.00;;;0.90;;
8982;SDS011;20979;59.850;10.660;2023-03-14T00:16:52;0.90;;;0.90;;
8982;SDS011;20979;59.850;10.660;2023-03-14T00:19:20;0.90;;;0.90;;
8982;SDS011;20979;59.850;10.660;2023-03-14T00:21:49;0.60;;;0.60;;
8982;SDS011;20979;59.850;10.660;2023-03-14T00:24:16;0.70;;;0.70;;
8982;SDS011;20979;59.850;10.660;2023-03-14T00:26:43;0.63;;;0.63;;
8982;SDS011;20979;59.850;10.660;2023-03-14T00:29:11;0.70;;;0.67;;
8982;SDS011;20979;59.850;10.660;2023-03-14T00:31:38;0.73;;;0.73;;
8982;SDS011;20979;59.850;10.660;2023-03-14T00:34:05;0.70;;;0.70;;
8982;SDS011;20979;59.850;10.660;2023-03-14T00:36:33;0.70;;;0.70;;
8982;SDS011;20979;59.850;10.660;2023-03-14T00:39:02;0.57;;;0.57;;
8982;SDS011;20979;59.850;10.660;2023-03-14T00:41:29;1.00;;;1.00;;
8982;SDS011;20979;59.850;10.660;2023-03-14T00:43:56;1.20;;;1.10;;
8982;SDS011;20979;59.850;10.660;2023-03-14T00:46:24;2.93;;;1.30;;
8982;SDS011;20979;59.850;10.660;2023-03-14T00:48:51;0.67;;;0.67;;
8982;SDS011;20979;59.850;10.660;2023-03-14T00:51:18;0.50;;;0.50;;
8982;SDS011;20979;59.850;10.660;2023-03-14T00:53:46;0.70;;;0.70;;
8982;SDS011;20979;59.850;10.660;2023-03-14T00:56:14;0.63;;;0.60;;
8982;SDS011;20979;59.850;10.660;2023-03-14T00:58:42;0.80;;;0.77;;
8982;SDS011;20979;59.850;10.660;2023-03-14T01:01:10;0.57;;;0.57;;
8982;SDS011;20979;59.850;10.660;2023-03-14T01:03:38;1.23;;;0.80;;
8982;SDS011;20979;59.850;10.660;2023-03-14T01:06:09;0.60;;;0.60;;
8982;SDS011;20979;59.850;10.660;2023-03-14T01:08:36;0.57;;;0.57;;
8982;SDS011;20979;59.850;10.660;2023-03-14T01:11:07;0.50;;;0.50;;
8982;SDS011;20979;59.850;10.660;2023-03-14T01:13:36;0.50;;;0.50;;
8982;SDS011;20979;59.850;10.660;2023-03-14T01:16:06;0.67;;;0.67;;
8982;SDS011;20979;59.850;10.660;2023-03-14T01:18:34;0.50;;;0.50;;
8982;SDS011;20979;59.850;10.660;2023-03-14T01:21:08;0.67;;;0.67;;
8982;SDS011;20979;59.850;10.660;2023-03-14T01:23:36;0.83;;;0.60;;
8982;SDS011;20979;59.850;10.660;2023-03-14T01:26:04;0.60;;;0.60;;
8982;SDS011;20979;59.850;10.660;2023-03-14T01:28:31;0.63;;;0.60;;
8982;SDS011;20979;59.850;10.660;2023-03-14T01:31:03;0.73;;;0.73;;
8982;SDS011;20979;59.850;10.660;2023-03-14T01:33:31;0.70;;;0.70;;
8982;SDS011;20979;59.850;10.660;2023-03-14T01:35:58;0.70;;;0.70;;
8982;SDS011;20979;59.850;10.660;2023-03-14T01:38:27;0.57;;;0.57;;
8982;SDS011;20979;59.850;10.660;2023-03-14T01:40:54;0.73;;;0.73;;
8982;SDS011;20979;59.850;10.660;2023-03-14T01:43:22;0.60;;;0.60;;
8982;SDS011;20979;59.850;10.660;2023-03-14T01:48:51;0.47;;;0.47;;
8982;SDS011;20979;59.850;10.660;2023-03-14T01:51:20;0.50;;;0.50;;
8982;SDS011;20979;59.850;10.660;2023-03-14T01:53:48;0.43;;;0.43;;
8982;SDS011;20979;59.850;10.660;2023-03-14T01:56:17;0.50;;;0.50;;
8982;SDS011;20979;59.850;10.660;2023-03-14T01:58:46;0.60;;;0.60;;
8982;SDS011;20979;59.850;10.660;2023-03-14T02:01:14;0.77;;;0.60;;
8982;SDS011;20979;59.850;10.660;2023-03-14T02:03:45;0.50;;;0.50;;
8982;SDS011;20979;59.850;10.660;2023-03-14T02:06:15;1.00;;;0.80;;
8982;SDS011;20979;59.850;10.660;2023-03-14T02:08:44;0.60;;;0.60;;
8982;SDS011;20979;59.850;10.660;2023-03-14T02:11:13;0.70;;;0.70;;
8982;SDS011;20979;59.850;10.660;2023-03-14T02:13:41;0.60;;;0.60;;
8982;SDS011;20979;59.850;10.660;2023-03-14T02:16:08;0.50;;;0.50;;
8982;SDS011;20979;59.850;10.660;2023-03-14T02:18:36;0.57;;;0.57;;
8982;SDS011;20979;59.850;10.660;2023-03-14T02:21:05;0.53;;;0.53;;
8982;SDS011;20979;59.850;10.660;2023-03-14T02:23:38;0.60;;;0.53;;
8982;SDS011;20979;59.850;10.660;2023-03-14T02:26:08;0.60;;;0.60;;
8982;SDS011;20979;59.850;10.660;2023-03-14T02:28:38;0.70;;;0.70;;
8982;SDS011;20979;59.850;10.660;2023-03-14T02:31:06;0.60;;;0.60;;
8982;SDS011;20979;59.850;10.660;2023-03-14T02:33:34;0.73;;;0.73;;
8982;SDS011;20979;59.850;10.660;2023-03-14T02:36:03;0.80;;;0.80;;
8982;SDS011;20979;59.850;10.660;2023-03-14T02:38:33;0.60;;;0.60;;
8982;SDS011;20979;59.850;10.660;2023-03-14T02:41:02;0.57;;;0.57;;
8982;SDS011;20979;59.850;10.660;2023-03-14T02:43:29;0.60;;;0.60;;
8982;SDS011;20979;59.850;10.660;2023-03-14T02:45:58;2.03;;;0.70;;
8982;SDS011;20979;59.850;10.660;2023-03-14T02:48:26;0.97;;;0.93;;
8982;SDS011;20979;59.850;10.660;2023-03-14T02:50:54;0.60;;;0.60;;
8982;SDS011;20979;59.850;10.660;2023-03-14T02:53:24;0.60;;;0.60;;
8982;SDS011;20979;59.850;10.660;2023-03-14T02:55:52;0.70;;;0.70;;
8982;SDS011;20979;59.850;10.660;2023-03-14T02:58:19;0.80;;;0.80;;
8982;SDS011;20979;59.850;10.660;2023-03-14T03:00:46;0.93;;;0.60;;
8982;SDS011;20979;59.850;10.660;2023-03-14T03:03:15;0.60;;;0.60;;
8982;SDS011;20979;59.850;10.660;2023-03-14T03:05:43;0.50;;;0.50;;
8982;SDS011;20979;59.850;10.660;2023-03-14T03:08:10;0.50;;;0.50;;
8982;SDS011;20979;59.850;10.660;2023-03-14T03:10:37;0.93;;;0.90;;
8982;SDS011;20979;59.850;10.660;2023-03-14T03:13:05;0.60;;;0.60;;
8982;SDS011;20979;59.850;10.660;2023-03-14T03:15:32;0.70;;;0.70;;
8982;SDS011;20979;59.850;10.660;2023-03-14T03:18:00;0.60;;;0.60;;
8982;SDS011;20979;59.850;10.660;2023-03-14T03:20:28;0.40;;;0.40;;
8982;SDS011;20979;59.850;10.660;2023-03-14T03:22:56;0.60;;;0.60;;
8982;SDS011;20979;59.850;10.660;2023-03-14T03:25:23;0.63;;;0.63;;
8982;SDS011;20979;59.850;10.660;2023-03-14T03:27:50;0.50;;;0.50;;
8982;SDS011;20979;59.850;10.660;2023-03-14T03:30:18;0.60;;;0.60;;
8982;SDS011;20979;59.850;10.660;2023-03-14T03:32:45;0.50;;;0.50;;
8982;SDS011;20979;59.850;10.660;2023-03-14T03:35:13;0.50;;;0.50;;
8982;SDS011;20979;59.850;10.660;2023-03-14T03:37:41;0.60;;;0.60;;
8982;SDS011;20979;59.850;10.660;2023-03-14T03:40:09;0.70;;;0.70;;
8982;SDS011;20979;59.850;10.660;2023-03-14T03:42:37;0.50;;;0.50;;
8982;SDS011;20979;59.850;10.660;2023-03-14T03:45:04;0.60;;;0.60;;
8982;SDS011;20979;59.850;10.660;2023-03-14T03:47:32;0.43;;;0.43;;
8982;SDS011;20979;59.850;10.660;2023-03-14T03:49:59;0.50;;;0.50;;
8982;SDS011;20979;59.850;10.660;2023-03-14T03:52:27;0.70;;;0.70;;
8982;SDS011;20979;59.850;10.660;2023-03-14T03:54:56;0.53;;;0.53;;
8982;SDS011;20979;59.850;10.660;2023-03-14T03:57:23;1.43;;;0.73;;
8982;SDS011;20979;59.850;10.660;2023-03-14T03:59:51;0.47;;;0.47;;
8982;SDS011;20979;59.850;10.660;2023-03-14T04:02:18;0.50;;;0.50;;
8982;SDS011;20979;59.850;10.660;2023-03-14T04:04:45;0.50;;;0.50;;
8982;SDS011;20979;59.850;10.660;2023-03-14T04:07:13;0.43;;;0.43;;
8982;SDS011;20979;59.850;10.660;2023-03-14T04:09:40;0.60;;;0.60;;
8982;SDS011;20979;59.850;10.660;2023-03-14T04:12:09;0.60;;;0.60;;
8982;SDS011;20979;59.850;10.660;2023-03-14T04:14:36;0.50;;;0.50;;
8982;SDS011;20979;59.850;10.660;2023-03-14T04:17:03;0.60;;;0.60;;
8982;SDS011;20979;59.850;10.660;2023-03-14T04:19:31;0.60;;;0.60;;
8982;SDS011;20979;59.850;10.660;2023-03-14T04:21:58;0.50;;;0.50;;
8982;SDS011;20979;59.850;10.660;2023-03-14T04:24:25;0.60;;;0.60;;
8982;SDS011;20979;59.850;10.660;2023-03-14T04:26:53;0.73;;;0.53;;
8982;SDS011;20979;59.850;10.660;2023-03-14T04:29:21;0.73;;;0.40;;
8982;SDS011;20979;59.850;10.660;2023-03-14T04:31:49;0.43;;;0.43;;
8982;SDS011;20979;59.850;10.660;2023-03-14T04:34:16;0.60;;;0.60;;
8982;SDS011;20979;59.850;10.660;2023-03-14T04:36:43;0.80;;;0.80;;
8982;SDS011;20979;59.850;10.660;2023-03-14T04:39:11;0.60;;;0.50;;
8982;SDS011;20979;59.850;10.660;2023-03-14T04:41:38;0.60;;;0.60;;
8982;SDS011;20979;59.850;10.660;2023-03-14T04:44:05;0.50;;;0.50;;
8982;SDS011;20979;59.850;10.660;2023-03-14T04:46:34;0.60;;;0.60;;
8982;SDS011;20979;59.850;10.660;2023-03-14T04:49:01;0.90;;;0.50;;
8982;SDS011;20979;59.850;10.660;2023-03-14T04:51:29;0.60;;;0.60;;
8982;SDS011;20979;59.850;10.660;2023-03-14T04:53:56;0.60;;;0.60;;
8982;SDS011;20979;59.850;10.660;2023-03-14T04:56:24;0.70;;;0.70;;
8982;SDS011;20979;59.850;10.660;2023-03-14T04:58:51;0.73;;;0.73;;
8982;SDS011;20979;59.850;10.660;2023-03-14T05:01:18;0.83;;;0.77;;
8982;SDS011;20979;59.850;10.660;2023-03-14T05:03:47;0.77;;;0.60;;
8982;SDS011;20979;59.850;10.660;2023-03-14T05:06:14;0.50;;;0.50;;
8982;SDS011;20979;59.850;10.660;2023-03-14T05:08:42;0.60;;;0.60;;
8982;SDS011;20979;59.850;10.660;2023-03-14T05:11:10;1.30;;;0.80;;
8982;SDS011;20979;59.850;10.660;2023-03-14T05:13:38;0.70;;;0.70;;
8982;SDS011;20979;59.850;10.660;2023-03-14T05:16:06;0.77;;;0.77;;
8982;SDS011;20979;59.850;10.660;2023-03-14T05:18:34;0.60;;;0.60;;
8982;SDS011;20979;59.850;10.660;2023-03-14T05:21:02;0.70;;;0.70;;
8982;SDS011;20979;59.850;10.660;2023-03-14T05:23:30;0.80;;;0.80;;
8982;SDS011;20979;59.850;10.660;2023-03-14T05:25:57;0.67;;;0.67;;
8982;SDS011;20979;59.850;10.660;2023-03-14T05:28:25;0.70;;;0.70;;
8982;SDS011;20979;59.850;10.660;2023-03-14T05:30:52;1.10;;;1.00;;
8982;SDS011;20979;59.850;10.660;2023-03-14T05:33:19;1.13;;;1.03;;
8982;SDS011;20979;59.850;10.660;2023-03-14T05:35:47;1.67;;;1.57;;
8982;SDS011;20979;59.850;10.660;2023-03-14T05:38:15;1.40;;;1.30;;
8982;SDS011;20979;59.850;10.660;2023-03-14T05:40:44;1.00;;;1.00;;
8982;SDS011;20979;59.850;10.660;2023-03-14T05:43:11;0.83;;;0.83;;
8982;SDS011;20979;59.850;10.660;2023-03-14T05:45:40;1.10;;;1.10;;
8982;SDS011;20979;59.850;10.660;2023-03-14T05:48:07;1.07;;;1.07;;
8982;SDS011;20979;59.850;10.660;2023-03-14T05:50:35;1.10;;;1.10;;
8982;SDS011;20979;59.850;10.660;2023-03-14T05:53:02;1.03;;;1.03;;
8982;SDS011;20979;59.850;10.660;2023-03-14T05:55:31;1.17;;;0.70;;
8982;SDS011;20979;59.850;10.660;2023-03-14T05:57:58;0.90;;;0.90;;
8982;SDS011;20979;59.850;10.660;2023-03-14T06:00:26;0.67;;;0.67;;
8982;SDS011;20979;59.850;10.660;2023-03-14T06:02:53;0.70;;;0.70;;
8982;SDS011;20979;59.850;10.660;2023-03-14T06:05:20;0.83;;;0.83;;
8982;SDS011;20979;59.850;10.660;2023-03-14T06:07:48;1.07;;;0.80;;
8982;SDS011;20979;59.850;10.660;2023-03-14T06:10:15;1.43;;;1.33;;
8982;SDS011;20979;59.850;10.660;2023-03-14T06:12:44;1.73;;;1.60;;
8982;SDS011;20979;59.850;10.660;2023-03-14T06:15:11;0.97;;;0.90;;
8982;SDS011;20979;59.850;10.660;2023-03-14T06:17:39;0.97;;;0.97;;
8982;SDS011;20979;59.850;10.660;2023-03-14T06:20:06;2.93;;;2.27;;
8982;SDS011;20979;59.850;10.660;2023-03-14T06:22:34;8.87;;;5.37;;
8982;SDS011;20979;59.850;10.660;2023-03-14T06:25:01;5.60;;;4.33;;
8982;SDS011;20979;59.850;10.660;2023-03-14T06:27:29;3.87;;;3.00;;
8982;SDS011;20979;59.850;10.660;2023-03-14T06:29:58;2.70;;;2.20;;
8982;SDS011;20979;59.850;10.660;2023-03-14T06:32:26;3.40;;;3.07;;
8982;SDS011;20979;59.850;10.660;2023-03-14T06:34:53;2.77;;;2.13;;
8982;SDS011;20979;59.850;10.660;2023-03-14T06:37:22;3.80;;;2.77;;
8982;SDS011;20979;59.850;10.660;2023-03-14T06:39:49;6.37;;;3.80;;
8982;SDS011;20979;59.850;10.660;2023-03-14T06:42:17;4.63;;;3.27;;
8982;SDS011;20979;59.850;10.660;2023-03-14T06:44:44;4.50;;;3.30;;
8982;SDS011;20979;59.850;10.660;2023-03-14T06:47:13;3.27;;;2.63;;
8982;SDS011;20979;59.850;10.660;2023-03-14T06:49:41;2.60;;;2.40;;
8982;SDS011;20979;59.850;10.660;2023-03-14T06:52:08;2.20;;;2.00;;
8982;SDS011;20979;59.850;10.660;2023-03-14T06:54:36;3.23;;;2.40;;
8982;SDS011;20979;59.850;10.660;2023-03-14T06:57:04;3.17;;;1.80;;
8982;SDS011;20979;59.850;10.660;2023-03-14T06:59:31;2.93;;;2.63;;
8982;SDS011;20979;59.850;10.660;2023-03-14T07:01:58;2.50;;;2.30;;
8982;SDS011;20979;59.850;10.660;2023-03-14T07:04:27;12.53;;;9.33;;
8982;SDS011;20979;59.850;10.660;2023-03-14T07:06:55;3.17;;;2.20;;
8982;SDS011;20979;59.850;10.660;2023-03-14T07:09:23;2.93;;;2.63;;
8982;SDS011;20979;59.850;10.660;2023-03-14T07:11:50;5.27;;;3.87;;
8982;SDS011;20979;59.850;10.660;2023-03-14T07:14:18;14.27;;;11.20;;
8982;SDS011;20979;59.850;10.660;2023-03-14T07:16:45;5.77;;;4.47;;
8982;SDS011;20979;59.850;10.660;2023-03-14T07:19:13;2.07;;;1.87;;
8982;SDS011;20979;59.850;10.660;2023-03-14T07:21:42;3.50;;;3.20;;
8982;SDS011;20979;59.850;10.660;2023-03-14T07:24:09;1.63;;;1.53;;
8982;SDS011;20979;59.850;10.660;2023-03-14T07:26:38;1.37;;;1.27;;
8982;SDS011;20979;59.850;10.660;2023-03-14T07:29:06;0.90;;;0.90;;
8982;SDS011;20979;59.850;10.660;2023-03-14T07:31:47;3.53;;;2.90;;
8982;SDS011;20979;59.850;10.660;2023-03-14T07:34:16;2.27;;;1.40;;
8982;SDS011;20979;59.850;10.660;2023-03-14T07:36:46;1.33;;;1.23;;
8982;SDS011;20979;59.850;10.660;2023-03-14T07:39:14;2.67;;;2.00;;
8982;SDS011;20979;59.850;10.660;2023-03-14T07:41:42;3.77;;;3.37;;
8982;SDS011;20979;59.850;10.660;2023-03-14T07:44:12;1.60;;;1.50;;
8982;SDS011;20979;59.850;10.660;2023-03-14T07:46:42;1.43;;;1.33;;
8982;SDS011;20979;59.850;10.660;2023-03-14T07:49:10;1.63;;;1.10;;
8982;SDS011;20979;59.850;10.660;2023-03-14T07:51:38;1.57;;;1.20;;
8982;SDS011;20979;59.850;10.660;2023-03-14T07:54:06;0.90;;;0.90;;
8982;SDS011;20979;59.850;10.660;2023-03-14T07:56:34;2.07;;;1.87;;
8982;SDS011;20979;59.850;10.660;2023-03-14T07:59:02;1.73;;;1.63;;
8982;SDS011;20979;59.850;10.660;2023-03-14T08:01:30;1.60;;;1.50;;
8982;SDS011;20979;59.850;10.660;2023-03-14T08:03:58;3.20;;;2.13;;
8982;SDS011;20979;59.850;10.660;2023-03-14T08:06:25;3.47;;;1.20;;
8982;SDS011;20979;59.850;10.660;2023-03-14T08:21:16;1.73;;;1.63;;
8982;SDS011;20979;59.850;10.660;2023-03-14T08:23:44;3.60;;;2.90;;
8982;SDS011;20979;59.850;10.660;2023-03-14T08:26:11;2.07;;;1.47;;
8982;SDS011;20979;59.850;10.660;2023-03-14T08:28:38;1.47;;;1.37;;
8982;SDS011;20979;59.850;10.660;2023-03-14T08:31:06;1.07;;;0.97;;
8982;SDS011;20979;59.850;10.660;2023-03-14T08:33:33;1.70;;;1.60;;
8982;SDS011;20979;59.850;10.660;2023-03-14T08:36:01;2.60;;;2.10;;
8982;SDS011;20979;59.850;10.660;2023-03-14T08:38:30;4.23;;;2.73;;
8982;SDS011;20979;59.850;10.660;2023-03-14T08:40:57;2.53;;;2.10;;
8982;SDS011;20979;59.850;10.660;2023-03-14T08:43:27;1.30;;;1.20;;
8982;SDS011;20979;59.850;10.660;2023-03-14T08:45:56;1.20;;;1.10;;
8982;SDS011;20979;59.850;10.660;2023-03-14T08:48:24;0.97;;;0.90;;
8982;SDS011;20979;59.850;10.660;2023-03-14T08:50:51;1.03;;;1.00;;
8982;SDS011;20979;59.850;10.660;2023-03-14T08:53:19;1.30;;;1.00;;
8982;SDS011;20979;59.850;10.660;2023-03-14T08:55:50;0.90;;;0.90;;
8982;SDS011;20979;59.850;10.660;2023-03-14T08:58:19;2.10;;;0.83;;
8982;SDS011;20979;59.850;10.660;2023-03-14T09:00:47;0.93;;;0.93;;
8982;SDS011;20979;59.850;10.660;2023-03-14T09:03:15;1.20;;;1.10;;
8982;SDS011;20979;59.850;10.660;2023-03-14T09:05:42;1.37;;;0.93;;
8982;SDS011;20979;59.850;10.660;2023-03-14T09:08:09;1.73;;;1.20;;
8982;SDS011;20979;59.850;10.660;2023-03-14T09:10:37;3.83;;;2.20;;
8982;SDS011;20979;59.850;10.660;2023-03-14T09:13:06;1.23;;;0.90;;
8982;SDS011;20979;59.850;10.660;2023-03-14T09:15:33;1.00;;;0.90;;
8982;SDS011;20979;59.850;10.660;2023-03-14T09:18:01;0.97;;;0.60;;
8982;SDS011;20979;59.850;10.660;2023-03-14T09:20:28;2.17;;;1.00;;
8982;SDS011;20979;59.850;10.660;2023-03-14T09:22:56;3.27;;;1.70;;
8982;SDS011;20979;59.850;10.660;2023-03-14T09:25:23;1.47;;;1.37;;
8982;SDS011;20979;59.850;10.660;2023-03-14T09:27:50;1.30;;;1.03;;
8982;SDS011;20979;59.850;10.660;2023-03-14T09:30:19;1.20;;;1.10;;
8982;SDS011;20979;59.850;10.660;2023-03-14T09:32:46;0.97;;;0.87;;
8982;SDS011;20979;59.850;10.660;2023-03-14T09:35:14;0.97;;;0.90;;
8982;SDS011;20979;59.850;10.660;2023-03-14T09:37:41;1.67;;;1.03;;
8982;SDS011;20979;59.850;10.660;2023-03-14T09:40:11;1.50;;;1.00;;
8982;SDS011;20979;59.850;10.660;2023-03-14T09:42:39;1.10;;;0.70;;
8982;SDS011;20979;59.850;10.660;2023-03-14T09:45:10;1.10;;;0.90;;
8982;SDS011;20979;59.850;10.660;2023-03-14T09:47:40;1.03;;;0.93;;
8982;SDS011;20979;59.850;10.660;2023-03-14T09:50:09;0.83;;;0.83;;
8982;SDS011;20979;59.850;10.660;2023-03-14T09:52:39;0.93;;;0.80;;
8982;SDS011;20979;59.850;10.660;2023-03-14T09:55:10;0.73;;;0.73;;
8982;SDS011;20979;59.850;10.660;2023-03-14T09:57:38;0.83;;;0.70;;
8982;SDS011;20979;59.850;10.660;2023-03-14T10:00:10;1.00;;;0.87;;
8982;SDS011;20979;59.850;10.660;2023-03-14T10:02:42;0.87;;;0.80;;
8982;SDS011;20979;59.850;10.660;2023-03-14T10:05:14;0.70;;;0.70;;
8982;SDS011;20979;59.850;10.660;2023-03-14T10:07:42;0.90;;;0.57;;
8982;SDS011;20979;59.850;10.660;2023-03-14T10:10:10;0.60;;;0.60;;
8982;SDS011;20979;59.850;10.660;2023-03-14T10:12:38;0.53;;;0.53;;
8982;SDS011;20979;59.850;10.660;2023-03-14T10:15:09;1.37;;;0.80;;
8982;SDS011;20979;59.850;10.660;2023-03-14T10:17:40;0.60;;;0.60;;
8982;SDS011;20979;59.850;10.660;2023-03-14T10:20:25;0.60;;;0.60;;
8982;SDS011;20979;59.850;10.660;2023-03-14T10:22:57;2.27;;;1.80;;
8982;SDS011;20979;59.850;10.660;2023-03-14T10:25:26;1.70;;;1.03;;
8982;SDS011;20979;59.850;10.660;2023-03-14T10:27:54;1.83;;;1.23;;
8982;SDS011;20979;59.850;10.660;2023-03-14T10:30:29;0.60;;;0.60;;
8982;SDS011;20979;59.850;10.660;2023-03-14T10:32:57;2.07;;;0.77;;
8982;SDS011;20979;59.850;10.660;2023-03-14T10:35:26;0.50;;;0.40;;
8982;SDS011;20979;59.850;10.660;2023-03-14T10:37:55;2.57;;;0.43;;
8982;SDS011;20979;59.850;10.660;2023-03-14T10:40:24;0.60;;;0.60;;
8982;SDS011;20979;59.850;10.660;2023-03-14T10:42:52;1.13;;;0.83;;
8982;SDS011;20979;59.850;10.660;2023-03-14T10:45:27;1.57;;;0.83;;
8982;SDS011;20979;59.850;10.660;2023-03-14T10:47:57;3.00;;;1.47;;
8982;SDS011;20979;59.850;10.660;2023-03-14T10:50:27;2.73;;;1.80;;
8982;SDS011;20979;59.850;10.660;2023-03-14T10:52:55;2.30;;;1.10;;
8982;SDS011;20979;59.850;10.660;2023-03-14T10:55:23;0.87;;;0.87;;
8982;SDS011;20979;59.850;10.660;2023-03-14T10:57:51;1.30;;;1.20;;
8982;SDS011;20979;59.850;10.660;2023-03-14T11:00:20;1.43;;;1.30;;
8982;SDS011;20979;59.850;10.660;2023-03-14T11:03:00;0.50;;;0.50;;
8982;SDS011;20979;59.850;10.660;2023-03-14T11:05:30;0.83;;;0.83;;
8982;SDS011;20979;59.850;10.660;2023-03-14T11:08:01;0.70;;;0.70;;
8982;SDS011;20979;59.850;10.660;2023-03-14T11:10:31;2.20;;;0.77;;
8982;SDS011;20979;59.850;10.660;2023-03-14T11:13:04;1.27;;;0.80;;
8982;SDS011;20979;59.850;10.660;2023-03-14T11:15:34;1.73;;;0.87;;
8982;SDS011;20979;59.850;10.660;2023-03-14T11:18:15;0.97;;;0.90;;
8982;SDS011;20979;59.850;10.660;2023-03-14T11:20:49;0.40;;;0.40;;
8982;SDS011;20979;59.850;10.660;2023-03-14T11:23:23;0.60;;;0.40;;
8982;SDS011;20979;59.850;10.660;2023-03-14T11:25:53;0.80;;;0.80;;
8982;SDS011;20979;59.850;10.660;2023-03-14T11:28:26;0.83;;;0.40;;
8982;SDS011;20979;59.850;10.660;2023-03-14T11:30:58;0.87;;;0.60;;
8982;SDS011;20979;59.850;10.660;2023-03-14T11:33:28;0.50;;;0.50;;
8982;SDS011;20979;59.850;10.660;2023-03-14T11:36:01;0.57;;;0.57;;
8982;SDS011;20979;59.850;10.660;2023-03-14T11:38:33;1.83;;;0.63;;
8982;SDS011;20979;59.850;10.660;2023-03-14T11:41:02;0.67;;;0.67;;
8982;SDS011;20979;59.850;10.660;2023-03-14T11:43:32;0.50;;;0.50;;
8982;SDS011;20979;59.850;10.660;2023-03-14T11:46:03;0.60;;;0.50;;
8982;SDS011;20979;59.850;10.660;2023-03-14T11:48:34;1.10;;;0.50;;
8982;SDS011;20979;59.850;10.660;2023-03-14T11:51:07;1.33;;;0.60;;
8982;SDS011;20979;59.850;10.660;2023-03-14T11:53:41;0.40;;;0.37;;
8982;SDS011;20979;59.850;10.660;2023-03-14T11:56:11;0.70;;;0.53;;
8982;SDS011;20979;59.850;10.660;2023-03-14T11:58:41;0.57;;;0.43;;
8982;SDS011;20979;59.850;10.660;2023-03-14T12:01:12;0.60;;;0.50;;
8982;SDS011;20979;59.850;10.660;2023-03-14T12:03:41;0.60;;;0.50;;
8982;SDS011;20979;59.850;10.660;2023-03-14T12:09:10;1.37;;;0.43;;
8982;SDS011;20979;59.850;10.660;2023-03-14T12:11:42;0.43;;;0.33;;
8982;SDS011;20979;59.850;10.660;2023-03-14T12:14:22;1.43;;;0.40;;
8982;SDS011;20979;59.850;10.660;2023-03-14T12:17:04;1.43;;;0.50;;
8982;SDS011;20979;59.850;10.660;2023-03-14T12:19:47;0.90;;;0.57;;
8982;SDS011;20979;59.850;10.660;2023-03-14T12:22:25;1.43;;;0.70;;
8982;SDS011;20979;59.850;10.660;2023-03-14T12:24:56;0.90;;;0.73;;
8982;SDS011;20979;59.850;10.660;2023-03-14T12:27:43;1.90;;;1.20;;
8982;SDS011;20979;59.850;10.660;2023-03-14T12:30:23;1.90;;;1.00;;
8982;SDS011;20979;59.850;10.660;2023-03-14T12:35:45;2.43;;;0.60;;
8982;SDS011;20979;59.850;10.660;2023-03-14T12:38:14;0.20;;;0.20;;
8982;SDS011;20979;59.850;10.660;2023-03-14T12:40:52;1.27;;;0.50;;
8982;SDS011;20979;59.850;10.660;2023-03-14T12:43:33;0.50;;;0.40;;
8982;SDS011;20979;59.850;10.660;2023-03-14T12:46:22;0.47;;;0.40;;
8982;SDS011;20979;59.850;10.660;2023-03-14T12:49:03;0.77;;;0.40;;
8982;SDS011;20979;59.850;10.660;2023-03-14T12:51:34;1.77;;;0.47;;
8982;SDS011;20979;59.850;10.660;2023-03-14T12:59:55;2.00;;;0.60;;
8982;SDS011;20979;59.850;10.660;2023-03-14T13:02:40;0.60;;;0.60;;
8982;SDS011;20979;59.850;10.660;2023-03-14T13:05:17;0.50;;;0.50;;
8982;SDS011;20979;59.850;10.660;2023-03-14T13:10:51;0.30;;;0.30;;
8982;SDS011;20979;59.850;10.660;2023-03-14T13:13:46;0.63;;;0.40;;
8982;SDS011;20979;59.850;10.660;2023-03-14T13:19:17;0.70;;;0.40;;
8982;SDS011;20979;59.850;10.660;2023-03-14T13:22:02;0.67;;;0.40;;
8982;SDS011;20979;59.850;10.660;2023-03-14T13:25:00;0.30;;;0.30;;
8982;SDS011;20979;59.850;10.660;2023-03-14T13:27:55;1.00;;;0.47;;
8982;SDS011;20979;59.850;10.660;2023-03-14T13:30:45;2.77;;;0.63;;
8982;SDS011;20979;59.850;10.660;2023-03-14T13:33:33;0.40;;;0.40;;
8982;SDS011;20979;59.850;10.660;2023-03-14T13:36:21;0.77;;;0.53;;
8982;SDS011;20979;59.850;10.660;2023-03-14T13:39:16;0.50;;;0.43;;
8982;SDS011;20979;59.850;10.660;2023-03-14T13:41:50;1.97;;;0.53;;
8982;SDS011;20979;59.850;10.660;2023-03-14T13:44:23;0.60;;;0.40;;
8982;SDS011;20979;59.850;10.660;2023-03-14T13:47:09;0.70;;;0.50;;
8982;SDS011;20979;59.850;10.660;2023-03-14T13:49:41;2.10;;;0.83;;
8982;SDS011;20979;59.850;10.660;2023-03-14T13:52:27;0.50;;;0.50;;
8982;SDS011;20979;59.850;10.660;2023-03-14T13:55:14;0.53;;;0.30;;
8982;SDS011;20979;59.850;10.660;2023-03-14T13:57:43;0.60;;;0.30;;
8982;SDS011;20979;59.850;10.660;2023-03-14T14:00:20;0.60;;;0.40;;
8982;SDS011;20979;59.850;10.660;2023-03-14T14:02:52;0.40;;;0.40;;
8982;SDS011;20979;59.850;10.660;2023-03-14T14:05:19;0.70;;;0.50;;
8982;SDS011;20979;59.850;10.660;2023-03-14T14:07:49;0.30;;;0.30;;
8982;SDS011;20979;59.850;10.660;2023-03-14T14:10:17;1.87;;;0.40;;
8982;SDS011;20979;59.850;10.660;2023-03-14T14:12:46;0.30;;;0.30;;
8982;SDS011;20979;59.850;10.660;2023-03-14T14:15:17;0.47;;;0.40;;
8982;SDS011;20979;59.850;10.660;2023-03-14T14:17:53;0.40;;;0.40;;
8982;SDS011;20979;59.850;10.660;2023-03-14T14:20:22;0.50;;;0.40;;
8982;SDS011;20979;59.850;10.660;2023-03-14T14:22:51;0.40;;;0.40;;
8982;SDS011;20979;59.850;10.660;2023-03-14T14:25:22;0.57;;;0.40;;
8982;SDS011;20979;59.850;10.660;2023-03-14T14:28:14;0.50;;;0.40;;
8982;SDS011;20979;59.850;10.660;2023-03-14T14:30:42;0.40;;;0.40;;
8982;SDS011;20979;59.850;10.660;2023-03-14T14:33:19;0.50;;;0.40;;
8982;SDS011;20979;59.850;10.660;2023-03-14T14:35:51;0.30;;;0.20;;
8982;SDS011;20979;59.850;10.660;2023-03-14T14:38:34;0.40;;;0.40;;
8982;SDS011;20979;59.850;10.660;2023-03-14T14:41:05;1.33;;;0.30;;
8982;SDS011;20979;59.850;10.660;2023-03-14T14:43:39;0.50;;;0.50;;
8982;SDS011;20979;59.850;10.660;2023-03-14T14:46:07;0.40;;;0.40;;
8982;SDS011;20979;59.850;10.660;2023-03-14T14:48:37;0.70;;;0.33;;
8982;SDS011;20979;59.850;10.660;2023-03-14T14:51:08;0.43;;;0.23;;
8982;SDS011;20979;59.850;10.660;2023-03-14T14:53:37;0.30;;;0.30;;
8982;SDS011;20979;59.850;10.660;2023-03-14T14:56:07;0.87;;;0.30;;
8982;SDS011;20979;59.850;10.660;2023-03-14T14:58:35;0.30;;;0.30;;
8982;SDS011;20979;59.850;10.660;2023-03-14T15:01:04;1.50;;;0.60;;
8982;SDS011;20979;59.850;10.660;2023-03-14T15:03:32;0.40;;;0.40;;
8982;SDS011;20979;59.850;10.660;2023-03-14T15:06:00;0.30;;;0.30;;
8982;SDS011;20979;59.850;10.660;2023-03-14T15:08:28;0.60;;;0.40;;
8982;SDS011;20979;59.850;10.660;2023-03-14T15:10:57;1.10;;;0.50;;
8982;SDS011;20979;59.850;10.660;2023-03-14T15:13:24;0.40;;;0.40;;
8982;SDS011;20979;59.850;10.660;2023-03-14T15:15:52;0.57;;;0.43;;
8982;SDS011;20979;59.850;10.660;2023-03-14T15:18:21;2.00;;;0.40;;
8982;SDS011;20979;59.850;10.660;2023-03-14T15:20:48;0.30;;;0.30;;
8982;SDS011;20979;59.850;10.660;2023-03-14T15:23:16;0.30;;;0.30;;
8982;SDS011;20979;59.850;10.660;2023-03-14T15:25:44;0.60;;;0.60;;
8982;SDS011;20979;59.850;10.660;2023-03-14T15:28:20;0.77;;;0.40;;
8982;SDS011;20979;59.850;10.660;2023-03-14T15:30:49;0.67;;;0.47;;
8982;SDS011;20979;59.850;10.660;2023-03-14T15:33:16;0.40;;;0.40;;
8982;SDS011;20979;59.850;10.660;2023-03-14T15:35:44;0.70;;;0.70;;
8982;SDS011;20979;59.850;10.660;2023-03-14T15:38:15;1.27;;;1.00;;